METAR AND TAF INFORMATION
METAR FOR SBJV
ADDS - METARS form results

(0559 UTC 23 May 2019)
Data provider http://aviationweather.gov/metar/data/
 
Forecast for: SBJV (JOINVILLE , BR)
Text: TAF SBJV 222100Z 2300/2312 13005KT 9999 BKN015 TX21/2300Z TN19/2308Z
Forecast period: 0000 to 1200 UTC 23 May 2019
Forecast type: FROM: standard forecast or significant change
Winds: from the SE (130 degrees) at 6 MPH (5 knots; 2.6 m/s)
Visibility: 6 or more miles 10+ km)
Ceiling: 1500 feet AGL
Clouds: broken clouds at 1500 feet AGL
Weather: no significant weather forecast for this period
Text: PROB40 2301/2308 4000 RA BR BKN006 RMK PCX
Forecast period: 0100 to 0800 UTC 23 May 2019
Forecast type: PROBABLE: 40 percent likelihood of the following during this time
Visibility: 2.49 miles (4.01 km)
Ceiling: 600 feet AGL
Clouds: broken clouds at 600 feet AGL
Weather: RA BR  (moderate rain, mist)

 AIRPORT MAP

 RUNWAY INFORMATION
Runway 15 Runway length 5381 ft Runway width 148 ft
Runway elevation 0 ft Runway displaced threshold 330 ft Runway heading 0
Runway 33 Runway length 5381 ft Runway width 148 ft
Runway elevation 0 ft Runway displaced threshold 0 ft Runway heading 0

 AIRPORT FREQUENCIES
Type AFIS Name TWR Frequency 118 MHZ

 AIRPORT NEAR NAVIGATION AIDS
Type NDB Name Gabi Frequency 245 KHZ
Type VOR-DME Name Joinville Frequency 115100 KHZ



Powered by Virtual Airlines Manager [v2.6.2]